sensor_id;sensor_type;location;lat;lon;timestamp;P1;durP1;ratioP1;P2;durP2;ratioP2
75512;SDS011;64090;49.770;18.760;2024-02-26T00:01:46;9.10;;;5.70;;
75512;SDS011;64090;49.770;18.760;2024-02-26T00:04:49;7.90;;;4.80;;
75512;SDS011;64090;49.770;18.760;2024-02-26T00:07:52;7.50;;;5.00;;
75512;SDS011;64090;49.770;18.760;2024-02-26T00:10:55;9.00;;;6.40;;
75512;SDS011;64090;49.770;18.760;2024-02-26T00:13:58;7.00;;;4.40;;
75512;SDS011;64090;49.770;18.760;2024-02-26T00:17:01;6.80;;;4.30;;
75512;SDS011;64090;49.770;18.760;2024-02-26T00:20:05;8.00;;;4.10;;
75512;SDS011;64090;49.770;18.760;2024-02-26T00:26:17;5.70;;;2.80;;
75512;SDS011;64090;49.770;18.760;2024-02-26T00:29:20;6.30;;;3.80;;
75512;SDS011;64090;49.770;18.760;2024-02-26T00:32:24;6.50;;;5.10;;
75512;SDS011;64090;49.770;18.760;2024-02-26T00:35:26;5.50;;;3.80;;
75512;SDS011;64090;49.770;18.760;2024-02-26T00:38:29;5.50;;;3.70;;
75512;SDS011;64090;49.770;18.760;2024-02-26T00:41:32;6.50;;;3.30;;
75512;SDS011;64090;49.770;18.760;2024-02-26T00:44:35;5.50;;;3.70;;
75512;SDS011;64090;49.770;18.760;2024-02-26T00:47:38;4.50;;;2.60;;
75512;SDS011;64090;49.770;18.760;2024-02-26T00:50:43;6.80;;;3.80;;
75512;SDS011;64090;49.770;18.760;2024-02-26T00:53:46;5.10;;;3.30;;
75512;SDS011;64090;49.770;18.760;2024-02-26T00:56:49;5.80;;;3.30;;
75512;SDS011;64090;49.770;18.760;2024-02-26T00:59:52;4.60;;;3.40;;
75512;SDS011;64090;49.770;18.760;2024-02-26T01:02:55;5.30;;;3.70;;
75512;SDS011;64090;49.770;18.760;2024-02-26T01:05:59;5.70;;;3.60;;
75512;SDS011;64090;49.770;18.760;2024-02-26T01:09:02;4.50;;;2.90;;
75512;SDS011;64090;49.770;18.760;2024-02-26T01:12:05;5.50;;;3.40;;
75512;SDS011;64090;49.770;18.760;2024-02-26T01:15:08;3.30;;;2.10;;
75512;SDS011;64090;49.770;18.760;2024-02-26T01:18:12;3.60;;;2.30;;
75512;SDS011;64090;49.770;18.760;2024-02-26T01:21:15;4.60;;;2.60;;
75512;SDS011;64090;49.770;18.760;2024-02-26T01:24:18;3.50;;;2.30;;
75512;SDS011;64090;49.770;18.760;2024-02-26T01:27:21;3.40;;;1.70;;
75512;SDS011;64090;49.770;18.760;2024-02-26T01:30:29;2.70;;;1.90;;
75512;SDS011;64090;49.770;18.760;2024-02-26T01:33:32;3.10;;;1.80;;
75512;SDS011;64090;49.770;18.760;2024-02-26T01:36:35;4.10;;;2.10;;
75512;SDS011;64090;49.770;18.760;2024-02-26T01:39:38;3.70;;;2.10;;
75512;SDS011;64090;49.770;18.760;2024-02-26T01:42:42;3.70;;;2.10;;
75512;SDS011;64090;49.770;18.760;2024-02-26T01:45:45;4.00;;;3.10;;
75512;SDS011;64090;49.770;18.760;2024-02-26T01:48:48;3.30;;;2.60;;
75512;SDS011;64090;49.770;18.760;2024-02-26T01:51:52;4.20;;;2.40;;
75512;SDS011;64090;49.770;18.760;2024-02-26T01:54:55;3.30;;;1.90;;
75512;SDS011;64090;49.770;18.760;2024-02-26T01:57:59;3.60;;;2.40;;
75512;SDS011;64090;49.770;18.760;2024-02-26T02:01:02;3.90;;;1.90;;
75512;SDS011;64090;49.770;18.760;2024-02-26T02:04:05;2.80;;;2.30;;
75512;SDS011;64090;49.770;18.760;2024-02-26T02:07:08;3.60;;;2.00;;
75512;SDS011;64090;49.770;18.760;2024-02-26T02:10:11;4.80;;;2.20;;
75512;SDS011;64090;49.770;18.760;2024-02-26T02:13:15;2.10;;;1.40;;
75512;SDS011;64090;49.770;18.760;2024-02-26T02:16:18;4.50;;;2.40;;
75512;SDS011;64090;49.770;18.760;2024-02-26T02:19:21;4.20;;;2.20;;
75512;SDS011;64090;49.770;18.760;2024-02-26T02:22:24;3.10;;;1.90;;
75512;SDS011;64090;49.770;18.760;2024-02-26T02:25:27;2.40;;;1.60;;
75512;SDS011;64090;49.770;18.760;2024-02-26T02:28:30;4.00;;;2.40;;
75512;SDS011;64090;49.770;18.760;2024-02-26T02:31:33;3.30;;;1.70;;
75512;SDS011;64090;49.770;18.760;2024-02-26T02:34:36;3.30;;;1.70;;
75512;SDS011;64090;49.770;18.760;2024-02-26T02:37:39;2.80;;;1.80;;
75512;SDS011;64090;49.770;18.760;2024-02-26T02:40:42;2.90;;;1.70;;
75512;SDS011;64090;49.770;18.760;2024-02-26T02:43:45;3.10;;;1.50;;
75512;SDS011;64090;49.770;18.760;2024-02-26T02:46:48;3.50;;;3.00;;
75512;SDS011;64090;49.770;18.760;2024-02-26T02:49:53;4.00;;;2.10;;
75512;SDS011;64090;49.770;18.760;2024-02-26T02:52:55;2.90;;;1.70;;
75512;SDS011;64090;49.770;18.760;2024-02-26T02:55:58;3.10;;;1.40;;
75512;SDS011;64090;49.770;18.760;2024-02-26T02:59:02;1.50;;;0.90;;
75512;SDS011;64090;49.770;18.760;2024-02-26T03:02:08;2.20;;;1.20;;
75512;SDS011;64090;49.770;18.760;2024-02-26T03:08:18;3.00;;;1.90;;
75512;SDS011;64090;49.770;18.760;2024-02-26T03:11:21;3.60;;;2.00;;
75512;SDS011;64090;49.770;18.760;2024-02-26T03:14:25;2.70;;;1.80;;
75512;SDS011;64090;49.770;18.760;2024-02-26T03:17:31;2.90;;;1.80;;
75512;SDS011;64090;49.770;18.760;2024-02-26T03:20:34;3.20;;;1.70;;
75512;SDS011;64090;49.770;18.760;2024-02-26T03:23:37;2.80;;;1.50;;
75512;SDS011;64090;49.770;18.760;2024-02-26T03:26:40;2.60;;;1.60;;
75512;SDS011;64090;49.770;18.760;2024-02-26T03:29:43;3.40;;;1.80;;
75512;SDS011;64090;49.770;18.760;2024-02-26T03:32:46;3.20;;;1.80;;
75512;SDS011;64090;49.770;18.760;2024-02-26T03:35:50;4.80;;;2.10;;
75512;SDS011;64090;49.770;18.760;2024-02-26T03:38:53;3.50;;;2.10;;
75512;SDS011;64090;49.770;18.760;2024-02-26T03:41:56;4.50;;;2.00;;
75512;SDS011;64090;49.770;18.760;2024-02-26T03:44:59;2.90;;;2.00;;
75512;SDS011;64090;49.770;18.760;2024-02-26T03:48:03;3.50;;;2.20;;
75512;SDS011;64090;49.770;18.760;2024-02-26T03:51:08;3.50;;;2.30;;
75512;SDS011;64090;49.770;18.760;2024-02-26T03:54:12;3.70;;;2.20;;
75512;SDS011;64090;49.770;18.760;2024-02-26T03:57:15;4.30;;;3.00;;
75512;SDS011;64090;49.770;18.760;2024-02-26T04:00:19;5.40;;;2.30;;
75512;SDS011;64090;49.770;18.760;2024-02-26T04:03:24;4.60;;;2.50;;
75512;SDS011;64090;49.770;18.760;2024-02-26T04:06:28;5.00;;;3.00;;
75512;SDS011;64090;49.770;18.760;2024-02-26T04:09:31;3.20;;;2.10;;
75512;SDS011;64090;49.770;18.760;2024-02-26T04:12:34;4.00;;;2.50;;
75512;SDS011;64090;49.770;18.760;2024-02-26T04:15:37;3.40;;;1.90;;
75512;SDS011;64090;49.770;18.760;2024-02-26T04:18:40;4.00;;;2.80;;
75512;SDS011;64090;49.770;18.760;2024-02-26T04:21:43;3.10;;;2.00;;
75512;SDS011;64090;49.770;18.760;2024-02-26T04:24:48;3.40;;;1.90;;
75512;SDS011;64090;49.770;18.760;2024-02-26T04:27:51;4.10;;;2.90;;
75512;SDS011;64090;49.770;18.760;2024-02-26T04:30:54;4.20;;;2.40;;
75512;SDS011;64090;49.770;18.760;2024-02-26T04:33:58;2.70;;;2.10;;
75512;SDS011;64090;49.770;18.760;2024-02-26T04:37:02;4.20;;;3.50;;
75512;SDS011;64090;49.770;18.760;2024-02-26T04:40:06;3.00;;;1.60;;
75512;SDS011;64090;49.770;18.760;2024-02-26T04:43:10;2.20;;;1.10;;
75512;SDS011;64090;49.770;18.760;2024-02-26T04:46:13;2.10;;;1.40;;
75512;SDS011;64090;49.770;18.760;2024-02-26T04:49:16;3.40;;;1.40;;
75512;SDS011;64090;49.770;18.760;2024-02-26T04:52:19;2.90;;;1.10;;
75512;SDS011;64090;49.770;18.760;2024-02-26T04:55:22;2.70;;;1.70;;
75512;SDS011;64090;49.770;18.760;2024-02-26T04:58:25;2.70;;;2.40;;
75512;SDS011;64090;49.770;18.760;2024-02-26T05:01:28;2.40;;;1.40;;
75512;SDS011;64090;49.770;18.760;2024-02-26T05:04:31;1.90;;;1.40;;
75512;SDS011;64090;49.770;18.760;2024-02-26T05:07:39;4.00;;;3.70;;
75512;SDS011;64090;49.770;18.760;2024-02-26T05:10:44;2.50;;;1.60;;
75512;SDS011;64090;49.770;18.760;2024-02-26T05:13:48;4.30;;;2.00;;
75512;SDS011;64090;49.770;18.760;2024-02-26T05:16:51;3.90;;;1.70;;
75512;SDS011;64090;49.770;18.760;2024-02-26T05:19:54;2.10;;;1.00;;
75512;SDS011;64090;49.770;18.760;2024-02-26T05:22:57;2.70;;;1.50;;
75512;SDS011;64090;49.770;18.760;2024-02-26T05:26:01;3.00;;;1.30;;
75512;SDS011;64090;49.770;18.760;2024-02-26T05:29:04;3.40;;;1.70;;
75512;SDS011;64090;49.770;18.760;2024-02-26T05:32:07;2.40;;;1.20;;
75512;SDS011;64090;49.770;18.760;2024-02-26T05:35:10;2.90;;;1.70;;
75512;SDS011;64090;49.770;18.760;2024-02-26T05:38:13;2.70;;;1.50;;
75512;SDS011;64090;49.770;18.760;2024-02-26T05:41:16;7.00;;;3.00;;
75512;SDS011;64090;49.770;18.760;2024-02-26T05:44:26;7.40;;;4.50;;
75512;SDS011;64090;49.770;18.760;2024-02-26T05:47:29;5.90;;;3.80;;
75512;SDS011;64090;49.770;18.760;2024-02-26T05:50:32;4.40;;;2.90;;
75512;SDS011;64090;49.770;18.760;2024-02-26T05:53:35;4.80;;;2.30;;
75512;SDS011;64090;49.770;18.760;2024-02-26T05:56:38;2.40;;;1.10;;
75512;SDS011;64090;49.770;18.760;2024-02-26T05:59:41;3.40;;;1.90;;
75512;SDS011;64090;49.770;18.760;2024-02-26T06:02:44;2.40;;;1.40;;
75512;SDS011;64090;49.770;18.760;2024-02-26T06:05:47;4.20;;;2.00;;
75512;SDS011;64090;49.770;18.760;2024-02-26T06:08:50;3.10;;;1.50;;
75512;SDS011;64090;49.770;18.760;2024-02-26T06:11:53;2.70;;;1.80;;
75512;SDS011;64090;49.770;18.760;2024-02-26T06:14:56;3.30;;;1.80;;
75512;SDS011;64090;49.770;18.760;2024-02-26T06:18:00;3.50;;;1.50;;
75512;SDS011;64090;49.770;18.760;2024-02-26T06:21:03;3.20;;;1.70;;
75512;SDS011;64090;49.770;18.760;2024-02-26T06:24:06;2.40;;;1.50;;
75512;SDS011;64090;49.770;18.760;2024-02-26T06:27:09;3.20;;;1.70;;
75512;SDS011;64090;49.770;18.760;2024-02-26T06:30:12;2.30;;;1.30;;
75512;SDS011;64090;49.770;18.760;2024-02-26T06:33:16;3.40;;;3.00;;
75512;SDS011;64090;49.770;18.760;2024-02-26T06:36:19;3.40;;;2.20;;
75512;SDS011;64090;49.770;18.760;2024-02-26T06:39:22;3.90;;;2.40;;
75512;SDS011;64090;49.770;18.760;2024-02-26T06:42:25;4.30;;;2.40;;
75512;SDS011;64090;49.770;18.760;2024-02-26T06:45:28;4.00;;;2.20;;
75512;SDS011;64090;49.770;18.760;2024-02-26T06:48:31;3.80;;;2.60;;
75512;SDS011;64090;49.770;18.760;2024-02-26T06:51:35;3.20;;;1.70;;
75512;SDS011;64090;49.770;18.760;2024-02-26T06:54:37;3.50;;;1.90;;
75512;SDS011;64090;49.770;18.760;2024-02-26T06:57:40;3.40;;;2.50;;
75512;SDS011;64090;49.770;18.760;2024-02-26T07:00:43;4.80;;;2.50;;
75512;SDS011;64090;49.770;18.760;2024-02-26T07:03:46;4.20;;;2.10;;
75512;SDS011;64090;49.770;18.760;2024-02-26T07:06:50;3.50;;;1.70;;
75512;SDS011;64090;49.770;18.760;2024-02-26T07:09:53;3.60;;;2.10;;
75512;SDS011;64090;49.770;18.760;2024-02-26T07:12:57;2.60;;;1.70;;
75512;SDS011;64090;49.770;18.760;2024-02-26T07:16:00;2.40;;;1.50;;
75512;SDS011;64090;49.770;18.760;2024-02-26T07:19:03;3.10;;;1.90;;
75512;SDS011;64090;49.770;18.760;2024-02-26T07:22:06;2.40;;;1.40;;
75512;SDS011;64090;49.770;18.760;2024-02-26T07:25:09;3.80;;;1.70;;
75512;SDS011;64090;49.770;18.760;2024-02-26T07:28:15;3.20;;;1.90;;
75512;SDS011;64090;49.770;18.760;2024-02-26T07:31:19;2.90;;;1.50;;
75512;SDS011;64090;49.770;18.760;2024-02-26T07:34:22;2.70;;;1.60;;
75512;SDS011;64090;49.770;18.760;2024-02-26T07:37:30;2.70;;;1.70;;
75512;SDS011;64090;49.770;18.760;2024-02-26T07:40:33;2.10;;;1.30;;
75512;SDS011;64090;49.770;18.760;2024-02-26T07:43:36;2.50;;;1.40;;
75512;SDS011;64090;49.770;18.760;2024-02-26T07:46:39;2.80;;;1.30;;
75512;SDS011;64090;49.770;18.760;2024-02-26T07:49:42;3.40;;;1.50;;
75512;SDS011;64090;49.770;18.760;2024-02-26T07:52:45;3.30;;;1.40;;
75512;SDS011;64090;49.770;18.760;2024-02-26T07:55:48;3.30;;;2.20;;
75512;SDS011;64090;49.770;18.760;2024-02-26T07:58:50;3.20;;;1.70;;
75512;SDS011;64090;49.770;18.760;2024-02-26T08:01:53;4.50;;;2.10;;
75512;SDS011;64090;49.770;18.760;2024-02-26T08:05:00;5.10;;;2.90;;
75512;SDS011;64090;49.770;18.760;2024-02-26T08:08:03;6.20;;;3.50;;
75512;SDS011;64090;49.770;18.760;2024-02-26T08:11:07;4.70;;;2.40;;
75512;SDS011;64090;49.770;18.760;2024-02-26T08:14:11;7.30;;;3.20;;
75512;SDS011;64090;49.770;18.760;2024-02-26T08:17:14;6.20;;;2.90;;
75512;SDS011;64090;49.770;18.760;2024-02-26T08:20:17;5.40;;;3.20;;
75512;SDS011;64090;49.770;18.760;2024-02-26T08:23:21;6.30;;;3.20;;
75512;SDS011;64090;49.770;18.760;2024-02-26T08:26:25;8.40;;;4.50;;
75512;SDS011;64090;49.770;18.760;2024-02-26T08:29:28;5.60;;;3.40;;
75512;SDS011;64090;49.770;18.760;2024-02-26T08:32:30;6.90;;;4.00;;
75512;SDS011;64090;49.770;18.760;2024-02-26T08:35:34;5.60;;;3.30;;
75512;SDS011;64090;49.770;18.760;2024-02-26T08:38:37;8.00;;;5.00;;
75512;SDS011;64090;49.770;18.760;2024-02-26T08:41:40;9.10;;;4.40;;
75512;SDS011;64090;49.770;18.760;2024-02-26T08:44:43;11.40;;;6.50;;
75512;SDS011;64090;49.770;18.760;2024-02-26T08:47:46;18.00;;;8.60;;
75512;SDS011;64090;49.770;18.760;2024-02-26T08:50:49;14.60;;;10.10;;
75512;SDS011;64090;49.770;18.760;2024-02-26T08:53:52;19.80;;;11.00;;
75512;SDS011;64090;49.770;18.760;2024-02-26T08:57:05;16.80;;;9.20;;
75512;SDS011;64090;49.770;18.760;2024-02-26T09:00:09;12.40;;;7.80;;
75512;SDS011;64090;49.770;18.760;2024-02-26T09:03:12;12.60;;;7.10;;
75512;SDS011;64090;49.770;18.760;2024-02-26T09:06:15;14.50;;;8.40;;
75512;SDS011;64090;49.770;18.760;2024-02-26T09:09:18;13.00;;;8.00;;
75512;SDS011;64090;49.770;18.760;2024-02-26T09:12:21;13.20;;;7.30;;
75512;SDS011;64090;49.770;18.760;2024-02-26T09:15:24;11.10;;;7.00;;
75512;SDS011;64090;49.770;18.760;2024-02-26T09:18:27;10.20;;;5.50;;
75512;SDS011;64090;49.770;18.760;2024-02-26T09:21:31;10.20;;;6.00;;
75512;SDS011;64090;49.770;18.760;2024-02-26T09:24:38;7.90;;;4.90;;
75512;SDS011;64090;49.770;18.760;2024-02-26T09:27:41;9.20;;;6.00;;
75512;SDS011;64090;49.770;18.760;2024-02-26T09:30:46;8.10;;;5.10;;
75512;SDS011;64090;49.770;18.760;2024-02-26T09:33:49;9.20;;;6.50;;
75512;SDS011;64090;49.770;18.760;2024-02-26T09:36:52;12.90;;;7.60;;
75512;SDS011;64090;49.770;18.760;2024-02-26T09:40:01;11.00;;;6.50;;
75512;SDS011;64090;49.770;18.760;2024-02-26T09:43:05;11.30;;;6.20;;
75512;SDS011;64090;49.770;18.760;2024-02-26T09:46:13;4.60;;;2.40;;
75512;SDS011;64090;49.770;18.760;2024-02-26T09:49:18;4.40;;;2.10;;
75512;SDS011;64090;49.770;18.760;2024-02-26T09:52:24;4.70;;;2.40;;
75512;SDS011;64090;49.770;18.760;2024-02-26T09:55:29;5.80;;;3.00;;
75512;SDS011;64090;49.770;18.760;2024-02-26T09:58:32;6.40;;;3.20;;
75512;SDS011;64090;49.770;18.760;2024-02-26T10:01:37;4.20;;;2.70;;
75512;SDS011;64090;49.770;18.760;2024-02-26T10:04:42;3.30;;;1.60;;
75512;SDS011;64090;49.770;18.760;2024-02-26T10:07:51;2.30;;;1.40;;
75512;SDS011;64090;49.770;18.760;2024-02-26T10:10:55;2.60;;;1.30;;
75512;SDS011;64090;49.770;18.760;2024-02-26T10:13:58;2.70;;;1.70;;
75512;SDS011;64090;49.770;18.760;2024-02-26T10:17:01;3.60;;;2.30;;
75512;SDS011;64090;49.770;18.760;2024-02-26T10:20:15;4.10;;;2.90;;
75512;SDS011;64090;49.770;18.760;2024-02-26T10:23:26;4.30;;;2.30;;
75512;SDS011;64090;49.770;18.760;2024-02-26T10:26:29;2.30;;;1.50;;
75512;SDS011;64090;49.770;18.760;2024-02-26T10:29:32;2.40;;;1.60;;
75512;SDS011;64090;49.770;18.760;2024-02-26T10:32:35;3.20;;;1.80;;
75512;SDS011;64090;49.770;18.760;2024-02-26T10:35:39;3.40;;;2.00;;
75512;SDS011;64090;49.770;18.760;2024-02-26T10:38:47;3.90;;;2.10;;
75512;SDS011;64090;49.770;18.760;2024-02-26T10:41:50;3.40;;;2.20;;
75512;SDS011;64090;49.770;18.760;2024-02-26T10:44:53;3.20;;;2.30;;
75512;SDS011;64090;49.770;18.760;2024-02-26T10:47:56;3.30;;;2.00;;
75512;SDS011;64090;49.770;18.760;2024-02-26T10:51:00;3.00;;;2.20;;
75512;SDS011;64090;49.770;18.760;2024-02-26T10:54:04;3.90;;;1.90;;
75512;SDS011;64090;49.770;18.760;2024-02-26T10:57:10;3.60;;;1.90;;
75512;SDS011;64090;49.770;18.760;2024-02-26T11:00:15;2.70;;;1.80;;
75512;SDS011;64090;49.770;18.760;2024-02-26T11:03:18;3.50;;;2.30;;
75512;SDS011;64090;49.770;18.760;2024-02-26T11:06:23;2.50;;;2.00;;
75512;SDS011;64090;49.770;18.760;2024-02-26T11:09:28;3.40;;;2.00;;
75512;SDS011;64090;49.770;18.760;2024-02-26T11:12:32;3.70;;;2.20;;
75512;SDS011;64090;49.770;18.760;2024-02-26T11:15:38;3.70;;;1.90;;
75512;SDS011;64090;49.770;18.760;2024-02-26T11:18:42;3.50;;;2.30;;
75512;SDS011;64090;49.770;18.760;2024-02-26T11:21:45;3.00;;;1.90;;
75512;SDS011;64090;49.770;18.760;2024-02-26T11:24:50;2.70;;;1.70;;
75512;SDS011;64090;49.770;18.760;2024-02-26T11:27:54;3.80;;;2.00;;
75512;SDS011;64090;49.770;18.760;2024-02-26T11:31:00;3.10;;;2.10;;
75512;SDS011;64090;49.770;18.760;2024-02-26T11:37:11;4.00;;;2.00;;
75512;SDS011;64090;49.770;18.760;2024-02-26T11:40:15;3.30;;;2.40;;
75512;SDS011;64090;49.770;18.760;2024-02-26T11:43:49;3.50;;;2.30;;
75512;SDS011;64090;49.770;18.760;2024-02-26T11:46:53;3.20;;;2.00;;
75512;SDS011;64090;49.770;18.760;2024-02-26T11:49:56;3.60;;;2.30;;
75512;SDS011;64090;49.770;18.760;2024-02-26T11:56:28;3.50;;;2.20;;
75512;SDS011;64090;49.770;18.760;2024-02-26T12:05:46;3.90;;;2.70;;
75512;SDS011;64090;49.770;18.760;2024-02-26T12:08:49;4.10;;;2.50;;
75512;SDS011;64090;49.770;18.760;2024-02-26T12:11:52;3.60;;;2.80;;
75512;SDS011;64090;49.770;18.760;2024-02-26T12:14:57;4.10;;;2.70;;
75512;SDS011;64090;49.770;18.760;2024-02-26T12:18:01;3.40;;;2.30;;
75512;SDS011;64090;49.770;18.760;2024-02-26T12:21:05;4.40;;;2.70;;
75512;SDS011;64090;49.770;18.760;2024-02-26T12:24:12;3.70;;;2.60;;
75512;SDS011;64090;49.770;18.760;2024-02-26T12:27:16;3.50;;;2.80;;
75512;SDS011;64090;49.770;18.760;2024-02-26T12:30:19;3.80;;;2.60;;
75512;SDS011;64090;49.770;18.760;2024-02-26T12:33:22;4.10;;;2.70;;
75512;SDS011;64090;49.770;18.760;2024-02-26T12:36:25;4.00;;;3.20;;
75512;SDS011;64090;49.770;18.760;2024-02-26T12:39:29;3.90;;;2.70;;
75512;SDS011;64090;49.770;18.760;2024-02-26T12:42:33;4.10;;;2.70;;
75512;SDS011;64090;49.770;18.760;2024-02-26T12:45:42;4.30;;;3.20;;
75512;SDS011;64090;49.770;18.760;2024-02-26T12:48:50;4.20;;;2.70;;
75512;SDS011;64090;49.770;18.760;2024-02-26T12:51:53;3.90;;;3.00;;
75512;SDS011;64090;49.770;18.760;2024-02-26T12:55:03;4.50;;;2.90;;
75512;SDS011;64090;49.770;18.760;2024-02-26T12:58:08;3.90;;;2.50;;
75512;SDS011;64090;49.770;18.760;2024-02-26T13:01:14;3.80;;;2.80;;
75512;SDS011;64090;49.770;18.760;2024-02-26T13:04:19;4.00;;;2.70;;
75512;SDS011;64090;49.770;18.760;2024-02-26T13:07:23;3.90;;;2.90;;
75512;SDS011;64090;49.770;18.760;2024-02-26T13:10:26;3.50;;;2.40;;
75512;SDS011;64090;49.770;18.760;2024-02-26T13:13:29;3.80;;;2.60;;
75512;SDS011;64090;49.770;18.760;2024-02-26T13:16:33;4.30;;;3.50;;
75512;SDS011;64090;49.770;18.760;2024-02-26T13:19:36;5.60;;;3.30;;
75512;SDS011;64090;49.770;18.760;2024-02-26T13:26:11;4.50;;;3.10;;
75512;SDS011;64090;49.770;18.760;2024-02-26T13:29:18;3.90;;;2.80;;
75512;SDS011;64090;49.770;18.760;2024-02-26T13:32:21;4.10;;;2.80;;
75512;SDS011;64090;49.770;18.760;2024-02-26T13:35:24;4.60;;;2.70;;
75512;SDS011;64090;49.770;18.760;2024-02-26T13:38:27;4.40;;;2.70;;
75512;SDS011;64090;49.770;18.760;2024-02-26T13:41:33;4.70;;;2.80;;
75512;SDS011;64090;49.770;18.760;2024-02-26T13:44:36;3.60;;;2.30;;
75512;SDS011;64090;49.770;18.760;2024-02-26T13:47:42;4.90;;;3.10;;
75512;SDS011;64090;49.770;18.760;2024-02-26T13:50:45;4.70;;;2.80;;
75512;SDS011;64090;49.770;18.760;2024-02-26T13:53:49;4.10;;;3.10;;
75512;SDS011;64090;49.770;18.760;2024-02-26T13:56:52;4.00;;;2.50;;
75512;SDS011;64090;49.770;18.760;2024-02-26T13:59:55;3.60;;;2.50;;
75512;SDS011;64090;49.770;18.760;2024-02-26T14:02:59;5.60;;;3.80;;
75512;SDS011;64090;49.770;18.760;2024-02-26T14:06:03;6.80;;;4.20;;
75512;SDS011;64090;49.770;18.760;2024-02-26T14:09:07;6.40;;;3.40;;
75512;SDS011;64090;49.770;18.760;2024-02-26T14:12:10;3.90;;;2.60;;
75512;SDS011;64090;49.770;18.760;2024-02-26T14:15:13;4.30;;;2.90;;
75512;SDS011;64090;49.770;18.760;2024-02-26T14:18:16;3.60;;;2.50;;
75512;SDS011;64090;49.770;18.760;2024-02-26T14:21:36;5.60;;;2.80;;
75512;SDS011;64090;49.770;18.760;2024-02-26T14:24:57;3.50;;;2.30;;
75512;SDS011;64090;49.770;18.760;2024-02-26T14:28:18;3.40;;;2.50;;
75512;SDS011;64090;49.770;18.760;2024-02-26T14:31:38;3.90;;;2.40;;
75512;SDS011;64090;49.770;18.760;2024-02-26T14:34:41;3.40;;;2.10;;
75512;SDS011;64090;49.770;18.760;2024-02-26T14:37:44;5.20;;;2.70;;
75512;SDS011;64090;49.770;18.760;2024-02-26T14:40:51;3.90;;;2.50;;
75512;SDS011;64090;49.770;18.760;2024-02-26T14:43:55;4.00;;;2.10;;
75512;SDS011;64090;49.770;18.760;2024-02-26T14:46:57;4.30;;;2.40;;
75512;SDS011;64090;49.770;18.760;2024-02-26T14:50:01;3.90;;;2.10;;
75512;SDS011;64090;49.770;18.760;2024-02-26T14:53:04;3.90;;;2.10;;
75512;SDS011;64090;49.770;18.760;2024-02-26T14:56:08;3.70;;;2.60;;
75512;SDS011;64090;49.770;18.760;2024-02-26T14:59:12;7.00;;;2.60;;
75512;SDS011;64090;49.770;18.760;2024-02-26T15:02:14;3.30;;;2.00;;
75512;SDS011;64090;49.770;18.760;2024-02-26T15:05:18;4.40;;;2.40;;
75512;SDS011;64090;49.770;18.760;2024-02-26T15:08:22;3.10;;;1.90;;
75512;SDS011;64090;49.770;18.760;2024-02-26T15:11:25;3.80;;;2.20;;
75512;SDS011;64090;49.770;18.760;2024-02-26T15:14:28;3.40;;;1.90;;
75512;SDS011;64090;49.770;18.760;2024-02-26T15:17:31;6.80;;;2.70;;
75512;SDS011;64090;49.770;18.760;2024-02-26T15:20:37;3.30;;;2.20;;
75512;SDS011;64090;49.770;18.760;2024-02-26T15:23:44;3.50;;;2.20;;
75512;SDS011;64090;49.770;18.760;2024-02-26T15:27:03;3.90;;;2.30;;
75512;SDS011;64090;49.770;18.760;2024-02-26T15:30:06;4.30;;;2.90;;
75512;SDS011;64090;49.770;18.760;2024-02-26T15:33:10;4.00;;;2.90;;
75512;SDS011;64090;49.770;18.760;2024-02-26T15:36:14;3.30;;;2.20;;
75512;SDS011;64090;49.770;18.760;2024-02-26T15:39:17;4.10;;;2.70;;
75512;SDS011;64090;49.770;18.760;2024-02-26T15:42:20;5.10;;;3.30;;
75512;SDS011;64090;49.770;18.760;2024-02-26T15:45:24;5.50;;;2.30;;
75512;SDS011;64090;49.770;18.760;2024-02-26T15:48:27;3.80;;;2.40;;
75512;SDS011;64090;49.770;18.760;2024-02-26T15:51:30;5.50;;;3.00;;
75512;SDS011;64090;49.770;18.760;2024-02-26T15:54:37;4.90;;;2.70;;
75512;SDS011;64090;49.770;18.760;2024-02-26T15:57:42;7.00;;;4.00;;
75512;SDS011;64090;49.770;18.760;2024-02-26T16:00:45;5.10;;;3.10;;
75512;SDS011;64090;49.770;18.760;2024-02-26T16:03:49;6.00;;;3.50;;
75512;SDS011;64090;49.770;18.760;2024-02-26T16:06:54;5.30;;;3.20;;
75512;SDS011;64090;49.770;18.760;2024-02-26T16:10:01;5.60;;;3.70;;
75512;SDS011;64090;49.770;18.760;2024-02-26T16:13:07;5.40;;;3.70;;
75512;SDS011;64090;49.770;18.760;2024-02-26T16:16:12;6.10;;;4.10;;
75512;SDS011;64090;49.770;18.760;2024-02-26T16:19:19;6.90;;;4.20;;
75512;SDS011;64090;49.770;18.760;2024-02-26T16:22:23;6.50;;;4.00;;
75512;SDS011;64090;49.770;18.760;2024-02-26T16:25:27;6.40;;;3.90;;
75512;SDS011;64090;49.770;18.760;2024-02-26T16:28:29;6.00;;;3.80;;
75512;SDS011;64090;49.770;18.760;2024-02-26T16:31:32;8.90;;;5.30;;
75512;SDS011;64090;49.770;18.760;2024-02-26T16:34:35;7.80;;;4.90;;
75512;SDS011;64090;49.770;18.760;2024-02-26T16:37:39;9.40;;;5.00;;
75512;SDS011;64090;49.770;18.760;2024-02-26T16:40:42;9.00;;;5.70;;
75512;SDS011;64090;49.770;18.760;2024-02-26T16:43:45;6.90;;;3.80;;
75512;SDS011;64090;49.770;18.760;2024-02-26T16:46:48;6.80;;;4.70;;
75512;SDS011;64090;49.770;18.760;2024-02-26T16:49:51;9.30;;;5.70;;
75512;SDS011;64090;49.770;18.760;2024-02-26T16:52:54;6.20;;;4.50;;
75512;SDS011;64090;49.770;18.760;2024-02-26T16:55:58;7.90;;;5.80;;
75512;SDS011;64090;49.770;18.760;2024-02-26T16:59:05;8.30;;;5.90;;
75512;SDS011;64090;49.770;18.760;2024-02-26T17:02:08;7.80;;;6.20;;
75512;SDS011;64090;49.770;18.760;2024-02-26T17:05:10;10.90;;;6.40;;
75512;SDS011;64090;49.770;18.760;2024-02-26T17:08:16;9.80;;;6.60;;
75512;SDS011;64090;49.770;18.760;2024-02-26T17:11:19;10.00;;;6.80;;
75512;SDS011;64090;49.770;18.760;2024-02-26T17:14:23;10.40;;;7.30;;
75512;SDS011;64090;49.770;18.760;2024-02-26T17:17:26;10.20;;;6.50;;
75512;SDS011;64090;49.770;18.760;2024-02-26T17:20:29;13.60;;;7.70;;
75512;SDS011;64090;49.770;18.760;2024-02-26T17:23:32;12.80;;;8.50;;
75512;SDS011;64090;49.770;18.760;2024-02-26T17:26:36;15.20;;;8.20;;
75512;SDS011;64090;49.770;18.760;2024-02-26T17:29:39;11.50;;;8.10;;
75512;SDS011;64090;49.770;18.760;2024-02-26T17:32:42;11.70;;;7.30;;
75512;SDS011;64090;49.770;18.760;2024-02-26T17:35:45;9.50;;;6.30;;
75512;SDS011;64090;49.770;18.760;2024-02-26T17:38:48;10.70;;;6.50;;
75512;SDS011;64090;49.770;18.760;2024-02-26T17:41:51;12.40;;;7.80;;
75512;SDS011;64090;49.770;18.760;2024-02-26T17:44:54;7.30;;;5.10;;
75512;SDS011;64090;49.770;18.760;2024-02-26T17:47:57;9.50;;;5.70;;
75512;SDS011;64090;49.770;18.760;2024-02-26T17:51:00;8.50;;;5.70;;
75512;SDS011;64090;49.770;18.760;2024-02-26T17:54:03;10.20;;;6.00;;
75512;SDS011;64090;49.770;18.760;2024-02-26T17:57:06;9.10;;;5.90;;
75512;SDS011;64090;49.770;18.760;2024-02-26T18:00:09;9.30;;;6.20;;
75512;SDS011;64090;49.770;18.760;2024-02-26T18:03:13;9.40;;;6.30;;
75512;SDS011;64090;49.770;18.760;2024-02-26T18:06:17;10.60;;;7.00;;
75512;SDS011;64090;49.770;18.760;2024-02-26T18:09:20;8.40;;;5.90;;
75512;SDS011;64090;49.770;18.760;2024-02-26T18:12:23;12.10;;;7.20;;
75512;SDS011;64090;49.770;18.760;2024-02-26T18:15:27;10.60;;;6.30;;
75512;SDS011;64090;49.770;18.760;2024-02-26T18:18:34;13.60;;;8.10;;
75512;SDS011;64090;49.770;18.760;2024-02-26T18:21:37;12.10;;;7.70;;
75512;SDS011;64090;49.770;18.760;2024-02-26T18:24:40;11.50;;;7.90;;
75512;SDS011;64090;49.770;18.760;2024-02-26T18:27:43;13.40;;;8.50;;
75512;SDS011;64090;49.770;18.760;2024-02-26T18:30:46;10.90;;;7.20;;
75512;SDS011;64090;49.770;18.760;2024-02-26T18:33:49;10.50;;;7.10;;